Timeline UpdatesTrip UpdatesNews PostsPvt PostsTravel TipsAdmin PostsConv PostsFollowed PostsChat RequestsBlog PostsPNR Posts

Disclaimer
Search
 
 
Sun Apr 20, 2014 21:25:15 ISTHomeTrainsΣChainsAtlasPNRForumGalleryNewsFAQTripsMembersLoginFeedback
No Recent News for this Train
Other Trains in the News **new
Latest...
.
Sat Jul 30, 2011 (04:46AM)
⇐ Return Journey: Train# 57562

57561/Kacheguda Manmad Passenger (UnReserved)

Sep 11 2013 (10:15PM)
Change Departure Station:
Change Arrival Station:
Post a Train Travel TipPost a Train Travel Tip **new
Post a Comment/Question/Picture/VideoPost a Comment/Question/Picture/Video
Pantry/Catering
✕ NO Pantry Car
✓ Catering Avbl
RSA - Rake Sharing
Rake/Coach Composition
LOCO-SLR-GEN-GEN-GEN-GEN-GEN-GEN-GEN-GEN-GEN-GEN-GEN-GEN-SLR.
Loco
MLY WDM 2/3A or WDG 3A.
News    PNR    Forum    Time-Table    Availability    Fare Chart    Map    Arr/Dep History    Trips    Gallery    ΣChains    X/O    Timeline    
Travel Time: 8h 30m    55 halts    Distance: 307 km    Avg Speed: 36 km/hr
Type: Passenger
Zone: SCR/South Central
Departs @ 04:50 (Avg 3m late)
Platform# 1
SMTWTFS
Hyderabad Kacheguda/KCG 
Arrives @ 13:20 (Avg 58m late)
Platform# ???
SMTWTFS
Purna Junction/PAU 

55 halts. 57 intermediate Stations between Hyderabad Kacheguda and Purna Junction

Show ALL intermediate Stations  Show Old Time-Table

#CodeStation NameX/OArrivesAvgDepartsAvgHaltPFDay#KmSpeedElevZoneAddress
1KCG»Hyderabad Kacheguda (5)»  -04:50+3110.058494mSCRHyderabad - 500027, Andhra Pradesh
2VARVidya Nagar (2)  04:52+304:53+31m--11.944505mSCRHyderabad, Andhra Pradesh
3JOOJamai Osmania (2)  04:55+304:56+31m--13.437515mSCRHyderabad, Andhra Pradesh
4ATCArts College (2)X  04:57+704:58+71m--14.033521mSCRHyderabad, Andhra Pradesh
5STPDSitafalmandi (4)  05:00+705:01+61m215.180533mSCRSecunderabad, Andhra Pradesh
6LGDHLalaguda Gate (2)  05:03+1005:04+101m--17.74543mSCRSecunderabad, Andhra Pradesh
7MJFMalkajgiri (3)X  05:18+1005:19+101m318.727535mSCRSecunderabad, Andhra Pradesh
8DYEDayanand Nagar (2)  05:21+1005:22+101m--19.635537mSCRSecunderabad, Andhra Pradesh
9SFXSafilguda (2)X  05:23+1005:24+101m--110.234544mSCRSecunderabad, Andhra Pradesh
10RKORamakistapuram Gate (2)  05:27+1005:28+101m--111.933561mSCRSecunderabad, Andhra Pradesh
11AMQAmmuguda Halt (2)  05:30+1405:31+141m--113.083569mSCRSecunderabad, Andhra Pradesh
12CVBCavalry Barracks (3)  05:32+1405:33+141m3114.424575mSCRSecunderabad, Andhra Pradesh
13ALWAlwal (2)  05:36+1405:37+141m--115.649580mSCRSecunderabad, Andhra Pradesh
14BOZBolarum Bazar (2)  05:39+1105:40+111m--117.212584mSCRSecunderabad, Andhra Pradesh
15BMOBolarum (3)X  05:48+1105:49+131m1118.929597mSCRSecunderabad, Andhra Pradesh
16GDPLGundla Pochampally (1)X  06:00+1106:01+121m--124.277601mSCRRangareddy, Andhra Pradesh
17GWVGowdavalli (1)  06:05+1106:06+111m1129.423601mSCRRangareddy, Andhra Pradesh
18MEDMedchal (3)  06:15+1106:16+151m2132.879602mSCRRangareddy Dist., Andhra Pradesh
19DBVDabilpur (1)  06:19+1506:20+151m1136.780611mSCRRangareddy Dist., Andhra Pradesh
20KUCHKuchavaram Halt (1)X  06:25+1406:26+141m1143.320595mSCRRangareddy, Andhra Pradesh
21MOBManoharabad (2)  06:34+1406:35+201m--146.0-593mSCRMedak, Andhra Pradesh
22PAPMPalata Potaram (1)  06:39+2006:40+201m1158.626522mSCRNational Highway 7, Andhra Pradesh
23BMPLBrahmanapalli (1)  06:44+1906:45+191m1160.321528mSCRNational Highway 7, Andhra Pradesh
24MEMasaipet (2)  06:53+1906:54+211m--163.146520mSCRMedak, Andhra Pradesh
25SHANSrinivasa NagarX  06:58+2006:59+201m--166.232522mSCRRamanthapur, Andhra Pradesh
26WDRWadiaram (2)  07:08+2007:09+221m--171.066547mSCRTelangana Region, Andhra Pradesh
27MZLMirzapalli (1)  07:15+2507:16+281m1177.529530mSCRMedak, Andhra Pradesh
28AKEAkanapetX  07:38+1807:39+221m--188.337566mSCR, Andhra Pradesh
29BKUBhiknur  07:49+2207:50+251m--194.461575mSCRNizamabad, Andhra Pradesh
30THPRTippapur (1)  07:54+2807:55+281m1198.555549mSCRNational Highway 7, Andhra Pradesh
31TMDTalmadla  08:01+2808:02+291m--1104.023559mSCRTelangana Region, Andhra Pradesh
32KMCKamareddi (3)  08:28+1708:30+182m11114.075528mSCRKamareddi, Andhra Pradesh
33UPWUppalavai  08:39+2208:40+221m--1125.357529mSCRUppalwai Main Rd, Andhra Pradesh
34SCPSirnapalli  08:51+2208:52+221m--1135.753456mSCRSirnapalli, Andhra Pradesh
35IDLIndalvai (1)X  09:01+2309:02+231m11143.647439mSCRIndalvai, Andhra Pradesh
36DHPDichpalliX  09:14+2209:15+231m--1153.139424mSCRDichpalli, Andhra Pradesh
37NZBNizamabad (3)  09:35+1909:40+205m31165.947384mSCRNizamabad, Andhra Pradesh
38JKMJankampet Junction (1)  09:48+2109:49+211m11172.163391mSCRJankampet Junction nizamabad dist., Andhra Pradesh
39NVTNavipet (2)  09:58+2309:59+271m--1181.570374mSCRNizamabad, Andhra Pradesh
40FKBFakrabad (1)  10:05+2010:06+201m--1188.618348mSCRBasara, Andhra Pradesh
41BSXBasar (2)X  10:28+1710:30+182m21195.359358mSCRDist Adilabad, Andhra Pradesh
42DABDharmabad (2)  10:40+1910:41+211m--1205.178354mSCRDegaon, Maharashtra
43SQESamrla  10:46+2210:47+221m--1211.653360mSCRDharmabad, Maharashtra
44KEKKarkheli  10:55+2210:56+221m--1218.756358mSCRBiloli, Maharashtra
45BLSABolsa  11:04+2311:05+231m--1226.156361mSCRDharmabad, Maharashtra
46UMRIUmri  11:14+2411:15+241m--1234.694381mSCRNanded, Maharashtra
47SLGHShelgaon Halt  11:20+2511:21+251m--1242.433378mSCRMudkhed, Maharashtra
48SVNSivungaon  11:29+2911:30+301m--1246.817395mSCRNanded, Maharashtra
49MUEMudkhed Junction (4)  11:55+3611:57+382m--1254.061378mSCRMudkhed, Maharashtra
50MGCMugat  12:06+4312:07+441m--1263.239360mSCRNanded, Maharashtra
51PARDPathradX  12:12+4412:13+441m--1266.543363mSCRHuzur Sahib Nanded, Maharashtra
52MTDIMaltekdi  12:23+4412:24+451m--1273.628362mSCRNanded, Maharashtra
53NEDHazur Sahib Nanded (4)X  12:30+4712:35+555m--1276.443366mSCRNanded ph.no 09730471954, Maharashtra
54WNGWanegaon  12:44+5212:45+521m--1282.831371mSCRChudawa, Maharashtra
55LBGLimbgaonX  12:54+5212:55+551m--1287.564390mSCRHuzur Sahib Nanded, Maharashtra
56CRUChudawa (1)X  13:04+5713:05+1:001m11297.140392mSCRHingoli, Maharashtra
57PAU•Purna Junction (4)•X  13:20+5813:25+1:065m--1307.052384mSCRPurna, Maharashtra
58MQLMirkhal  13:39+1:0913:40+1:101m--1319.136405mSCRPurna, Maharashtra
59PIZPingli  13:49+1:0913:50+1:111m--1324.551399mSCRParbhani, Maharashtra
60PBNParbhani Junction (3)X  14:03+1:1014:05+1:142m11335.573414mSCRParbhani 431401, Maharashtra
61PGPergaon  14:15+1:1914:16+1:201m--1347.673441mSCRParbhani, Maharashtra
62DAVDevalgaon Avchar  14:21+1:2514:22+1:261m--1353.679425mSCRParbhani, Maharashtra
63MVOManwath Road (2)  14:29+1:3014:30+1:321m--1362.854421mSCRParbhani, Maharashtra
64DGPPDhengli PimpalgaonX  14:36+1:4014:37+1:421m--1368.326407mSCRSatuna, Maharashtra
65SELUSelu (2)  14:59+1:3015:00+1:331m--1377.968436mSCRParbhani, Maharashtra
66SCOSatunaX  15:09+1:3515:10+1:361m--1388.153440mSCRSatona, Maharashtra
67UPRUsmanpur  15:19+1:3615:20+1:371m--1396.063444mSCRUsmanpur, Maharashtra
68PTUPartur (2)  15:29+1:3815:30+1:401m--1405.548465mSCRJalna, Maharashtra
69PDGParadgaon  15:39+1:3815:40+1:381m--1412.742454mSCRUsmanpur, Maharashtra
70RNERanjani  15:49+1:3815:50+1:391m--1418.975469mSCRJalna, Maharashtra
71KODIKodiX  15:59+1:4316:00+1:431m--1430.166473mSCRRanjani, Maharashtra
72SVDSarwariX  16:09+1:4616:10+1:481m--1440.18493mSCRRanjani, Maharashtra
73JJalna (3)  17:23+4817:25+512m--1449.881502mSCRJalna, Maharashtra
74BDUBadnapur  17:39+5517:40+581m--1468.871523mSCRJalna, Maharashtra
75KMVKarmad  17:53+1:0317:54+1:071m--1484.324567mSCRAurangabad, Maharashtra
76CTHChikalthanX  18:04+1:1118:05+1:161m--1488.2-582mSCRAurangabad, Maharashtra
77MKDDMukundwadi Halt (1)X  18:09+3418:10+341m11502.511580mSCRAurangabad, Maharashtra
78AWBAurangabad (5)X  19:05+3419:10+385m--1512.583561mSCRAurangabad 431001, Maharashtra
79DLBDaulatabad  19:19+4219:20+431m--1525.031575mSCRDaulatabad, Maharashtra
80POZPotul (1)  19:38+3419:39+361m11534.3141554mSCRLasur, Maharashtra
81LSRLasur (2)X  19:44+4019:45+421m--1546.0102536mSCRAurangabad, Maharashtra
82KAJGKaranjgaonX  19:51+4619:52+471m--1556.231523mSCRLasur, Maharashtra
83PSDParsoda  20:01+4720:02+501m--1560.962530mSCRRotegaon, Maharashtra
84RGORotegaonX  20:14+4920:15+511m--1573.2145547mSCRAurangabad, Maharashtra
85TRTarur  20:24+5720:25+1:001m--1595.011586mSCRTaru, Maharashtra
86NSLNagarsol (2)X  20:59+4121:00+501m--1601.211589mSCRDist. Nashik, Maharashtra
87ANKAnkai (3)X  21:54+1721:55+1:281m31611.111620mSCRDist. Nashik, Maharashtra
88MMRManmad Junction (6)  23:05+1:44-61624.0-580mCRManmad 423104, Maharashtra
Scroll to Top
Scroll to Bottom